Time;durP1;ratioP1;P1;durP2;ratioP2;P2;SDS_P1;SDS_P2;PMS_P1;PMS_P2;Temp;Humidity;BMP_temperature;BMP_pressure;BME280_temperature;BME280_humidity;BME280_pressure;Samples;Min_cycle;Max_cycle;Signal;HPM_P1;HPM_P2
2021/05/08 00:01:48;;;;;;;7.42;6.80;;;;;;;10.04;82.49;98217.31;1683246;84;21296;-57
2021/05/08 00:04:16;;;;;;;8.00;6.78;;;;;;;10.00;82.21;98216.59;1685844;84;21404;-57
2021/05/08 00:06:45;;;;;;;7.22;6.62;;;;;;;9.93;82.07;98221.34;1684750;83;21004;-57
2021/05/08 00:09:13;;;;;;;6.95;6.35;;;;;;;9.89;82.00;98234.72;1684570;84;21172;-59
2021/05/08 00:11:41;;;;;;;7.20;6.60;;;;;;;9.88;82.04;98245.55;1684858;84;22431;-57
2021/05/08 00:14:09;;;;;;;7.47;6.87;;;;;;;9.85;82.13;98253.91;1685710;84;21091;-57
2021/05/08 00:16:37;;;;;;;7.55;6.85;;;;;;;9.83;82.04;98264.71;1685239;84;21625;-60
2021/05/08 00:19:05;;;;;;;6.17;5.60;;;;;;;9.80;81.78;98269.08;1682266;84;21134;-58
2021/05/08 00:21:32;;;;;;;7.83;6.58;;;;;;;9.78;81.87;98267.13;1684270;84;21281;-60
2021/05/08 00:24:04;;;;;;;6.70;6.10;;;;;;;9.78;81.70;98269.79;1684792;84;21237;-58
2021/05/08 00:26:31;;;;;;;5.75;5.25;;;;;;;9.78;81.19;98277.76;1686247;83;21162;-57
2021/05/08 00:28:59;;;;;;;6.70;6.10;;;;;;;9.77;80.88;98277.46;1681988;85;21424;-57
2021/05/08 00:31:27;;;;;;;6.97;6.40;;;;;;;9.75;80.43;98282.66;1682223;83;21160;-58
2021/05/08 00:33:55;;;;;;;6.50;6.00;;;;;;;9.72;80.56;98293.16;1685071;84;21198;-57
2021/05/08 00:36:22;;;;;;;7.15;6.55;;;;;;;9.71;80.48;98298.64;1687317;83;21599;-58
2021/05/08 00:38:49;;;;;;;6.17;5.62;;;;;;;9.70;80.60;98308.94;1684348;83;21599;-57
2021/05/08 00:41:17;;;;;;;6.70;6.10;;;;;;;9.70;80.92;98304.95;1689701;84;21716;-59
2021/05/08 00:43:44;;;;;;;6.95;5.92;;;;;;;9.72;81.15;98305.61;1685918;84;21256;-57
2021/05/08 00:46:12;;;;;;;5.45;4.95;;;;;;;9.70;81.42;98311.59;1684965;84;21148;-58
2021/05/08 00:48:40;;;;;;;6.72;6.08;;;;;;;9.68;81.45;98316.28;1636028;84;21983;-57
2021/05/08 00:51:08;;;;;;;6.12;5.55;;;;;;;9.66;81.25;98320.48;1684885;84;21197;-57
2021/05/08 00:53:38;;;;;;;5.35;4.85;;;;;;;9.65;81.21;98323.30;1683713;84;21654;-57
2021/05/08 00:56:09;;;;;;;5.33;4.92;;;;;;;9.64;80.64;98329.15;1689330;83;20974;-59
2021/05/08 00:58:37;;;;;;;5.40;4.28;;;;;;;9.63;80.56;98331.98;1686013;84;21075;-57
2021/05/08 01:01:05;;;;;;;5.12;4.62;;;;;;;9.62;80.30;98336.46;1684880;84;21296;-58
2021/05/08 01:03:32;;;;;;;5.20;4.70;;;;;;;9.59;80.22;98331.56;1686662;84;21157;-57
2021/05/08 01:06:01;;;;;;;4.50;4.20;;;;;;;9.58;80.09;98348.49;1686045;84;21206;-57
2021/05/08 01:08:30;;;;;;;4.67;4.30;;;;;;;9.53;79.99;98345.59;1685672;83;21126;-57
2021/05/08 01:10:58;;;;;;;4.78;4.37;;;;;;;9.49;80.08;98350.16;1685131;84;21070;-57
2021/05/08 01:13:27;;;;;;;5.47;4.97;;;;;;;9.45;80.03;98354.18;1686755;83;21168;-57
2021/05/08 01:15:55;;;;;;;4.87;4.47;;;;;;;9.38;80.30;98357.28;1686029;84;21693;-57
2021/05/08 01:18:22;;;;;;;5.10;4.65;;;;;;;9.33;80.70;98359.19;1685109;83;22294;-58
2021/05/08 01:20:50;;;;;;;6.58;5.25;;;;;;;9.31;80.96;98362.52;1684110;83;21147;-58
2021/05/08 01:23:19;;;;;;;5.55;5.05;;;;;;;9.29;81.31;98367.20;1682981;84;21158;-57
2021/05/08 01:25:46;;;;;;;6.25;5.65;;;;;;;9.25;81.30;98373.91;1683432;84;21149;-60
2021/05/08 01:28:15;;;;;;;5.22;4.83;;;;;;;9.18;81.67;98378.30;1685465;84;21139;-57
2021/05/08 01:30:43;;;;;;;4.78;4.37;;;;;;;9.14;81.83;98383.18;1684677;83;21399;-58
2021/05/08 01:33:15;;;;;;;5.20;4.70;;;;;;;9.14;81.87;98385.83;1687609;84;21252;-59
2021/05/08 01:35:43;;;;;;;5.05;4.55;;;;;;;9.10;82.23;98386.37;1687069;84;21265;-59
2021/05/08 01:38:10;;;;;;;4.87;4.47;;;;;;;9.05;82.37;98381.62;1688992;84;21169;-59
2021/05/08 01:40:40;;;;;;;4.83;4.42;;;;;;;9.01;82.73;98393.64;1686019;84;21142;-59
2021/05/08 01:43:09;;;;;;;5.33;4.87;;;;;;;8.98;83.08;98400.64;1666771;85;21393;-60
2021/05/08 01:45:38;;;;;;;4.60;4.20;;;;;;;8.95;83.51;98394.88;1685246;84;21074;-57
2021/05/08 01:48:08;;;;;;;5.30;4.80;;;;;;;8.94;83.58;98397.23;1687100;84;21155;-59
2021/05/08 01:50:36;;;;;;;5.17;4.45;;;;;;;8.91;83.61;98393.61;1687511;84;21087;-57
2021/05/08 01:53:03;;;;;;;3.83;3.52;;;;;;;8.88;83.67;98398.78;1680724;83;21188;-60
2021/05/08 01:55:31;;;;;;;4.78;4.40;;;;;;;8.86;83.69;98402.13;1687348;84;22187;-60
2021/05/08 01:58:02;;;;;;;5.10;4.70;;;;;;;8.82;83.55;98396.86;1686626;84;21130;-57
2021/05/08 02:00:34;;;;;;;4.55;4.15;;;;;;;8.76;83.37;98407.41;1681457;84;21130;-57
2021/05/08 02:03:03;;;;;;;5.00;4.47;;;;;;;8.67;83.38;98402.20;1682016;84;21185;-59
2021/05/08 02:05:35;;;;;;;5.67;4.35;;;;;;;8.61;83.23;98398.94;1682277;84;21357;-58
2021/05/08 02:08:06;;;;;;;4.90;4.47;;;;;;;8.56;83.04;98407.13;1684994;84;22262;-57
2021/05/08 02:10:35;;;;;;;5.08;4.67;;;;;;;8.51;82.62;98406.84;1687255;84;21144;-57
2021/05/08 02:13:04;;;;;;;5.15;4.75;;;;;;;8.45;82.44;98400.45;1680513;84;21194;-58
2021/05/08 02:15:32;;;;;;;5.03;4.62;;;;;;;8.40;82.28;98402.83;1685045;84;21206;-60
2021/05/08 02:18:00;;;;;;;5.95;5.35;;;;;;;8.32;82.41;98416.66;1685828;83;21600;-57
2021/05/08 02:20:31;;;;;;;5.10;4.70;;;;;;;8.31;82.69;98436.23;1684565;83;21392;-57
2021/05/08 02:23:01;;;;;;;5.33;4.92;;;;;;;8.32;83.18;98438.69;1685000;84;21077;-59
2021/05/08 02:25:29;;;;;;;4.65;4.25;;;;;;;8.28;83.51;98446.69;1673516;84;21077;-58
2021/05/08 02:27:58;;;;;;;4.62;4.22;;;;;;;8.25;83.93;98450.16;1686614;83;21020;-58
2021/05/08 02:30:30;;;;;;;4.90;4.50;;;;;;;8.21;83.89;98453.69;1686136;83;21171;-58
2021/05/08 02:33:02;;;;;;;4.67;4.28;;;;;;;8.17;84.06;98460.83;1686553;83;21446;-59
2021/05/08 02:35:31;;;;;;;4.22;3.92;;;;;;;8.14;83.78;98467.30;1685054;84;20948;-57
2021/05/08 02:37:58;;;;;;;4.55;4.15;;;;;;;8.11;83.55;98471.63;1674543;84;21111;-60
2021/05/08 02:40:33;;;;;;;3.90;3.60;;;;;;;8.08;83.55;98472.02;1687345;84;21170;-57
2021/05/08 02:43:04;;;;;;;4.47;4.08;;;;;;;8.04;83.60;98468.06;1686368;83;21577;-58
2021/05/08 02:45:32;;;;;;;4.45;3.85;;;;;;;7.99;83.44;98480.52;1684302;83;21416;-59
2021/05/08 02:48:00;;;;;;;4.90;4.50;;;;;;;7.93;83.28;98479.90;1687366;84;20971;-58
2021/05/08 02:50:29;;;;;;;5.45;4.70;;;;;;;7.87;83.32;98479.80;1685332;84;21118;-58
2021/05/08 02:52:59;;;;;;;4.62;4.22;;;;;;;7.83;83.68;98481.13;1686040;83;21242;-57
2021/05/08 02:55:29;;;;;;;4.42;4.03;;;;;;;7.82;83.82;98477.66;1686214;84;21196;-57
2021/05/08 02:58:01;;;;;;;4.28;3.87;;;;;;;7.81;83.77;98476.52;1684937;84;21397;-57
2021/05/08 03:00:26;;;;;;;3.83;3.52;;;;;;;7.77;83.99;98473.92;1684942;83;21158;-57
2021/05/08 03:02:54;;;;;;;4.78;3.98;;;;;;;7.76;83.99;98485.50;1685674;84;21130;-60
2021/05/08 03:05:21;;;;;;;3.75;3.45;;;;;;;7.76;83.59;98494.27;1684914;84;21650;-58
2021/05/08 03:07:51;;;;;;;3.90;3.60;;;;;;;7.74;83.21;98494.95;1688831;84;21232;-59
2021/05/08 03:10:19;;;;;;;3.65;3.30;;;;;;;7.71;82.70;98499.77;1687907;84;21203;-61
2021/05/08 03:12:48;;;;;;;2.83;2.62;;;;;;;7.68;82.67;98495.64;1685582;84;21185;-58
2021/05/08 03:15:16;;;;;;;3.60;3.30;;;;;;;7.67;82.67;98497.13;1684975;84;21021;-57
2021/05/08 03:17:43;;;;;;;5.65;3.22;;;;;;;7.64;82.74;98493.53;1658146;85;21170;-60
2021/05/08 03:20:13;;;;;;;4.08;3.77;;;;;;;7.58;82.95;98503.48;1684559;84;21647;-57
2021/05/08 03:22:41;;;;;;;3.60;3.30;;;;;;;7.52;83.17;98512.11;1684764;84;22455;-57
2021/05/08 03:25:10;;;;;;;2.90;2.60;;;;;;;7.50;83.49;98512.80;1685793;84;21173;-59
2021/05/08 03:27:39;;;;;;;3.15;2.85;;;;;;;7.47;83.67;98506.03;1671153;83;21135;-57
2021/05/08 03:30:08;;;;;;;3.40;3.10;;;;;;;7.46;83.61;98511.81;1685662;83;21079;-57
2021/05/08 03:32:36;;;;;;;3.02;2.83;;;;;;;7.45;83.63;98510.19;1686418;83;21105;-58
2021/05/08 03:35:05;;;;;;;3.72;3.33;;;;;;;7.44;83.57;98508.52;1685447;84;21382;-57
2021/05/08 03:37:33;;;;;;;3.45;3.15;;;;;;;7.42;83.51;98513.17;1685187;83;21258;-58
2021/05/08 03:40:00;;;;;;;3.47;3.20;;;;;;;7.45;83.24;98518.12;1685436;84;21624;-58
2021/05/08 03:42:28;;;;;;;3.52;2.98;;;;;;;7.48;83.22;98517.44;1686743;84;21209;-57
2021/05/08 03:44:55;;;;;;;3.30;3.00;;;;;;;7.48;83.04;98514.30;1685643;84;21225;-58
2021/05/08 03:47:23;;;;;;;2.47;2.27;;;;;;;7.46;83.11;98514.46;1683439;84;21219;-57
2021/05/08 03:49:52;;;;;;;3.98;3.58;;;;;;;7.46;82.84;98518.43;1684448;84;21146;-57
2021/05/08 03:52:20;;;;;;;4.80;4.40;;;;;;;7.45;82.83;98525.23;1684771;84;21103;-59
2021/05/08 03:54:48;;;;;;;3.87;3.50;;;;;;;7.44;82.93;98519.11;1685512;84;21580;-58
2021/05/08 03:57:15;;;;;;;2.70;2.50;;;;;;;7.46;82.67;98517.59;1684812;84;21534;-58
2021/05/08 03:59:42;;;;;;;2.92;2.60;;;;;;;7.48;82.17;98512.15;1684000;84;21381;-57
2021/05/08 04:02:10;;;;;;;2.67;2.47;;;;;;;7.48;81.94;98507.16;1685529;84;21354;-58
2021/05/08 04:04:37;;;;;;;2.65;2.45;;;;;;;7.48;82.03;98508.19;1686112;84;21234;-58
2021/05/08 04:07:05;;;;;;;2.58;2.37;;;;;;;7.48;82.04;98516.42;1687297;82;21675;-57
2021/05/08 04:09:33;;;;;;;3.20;2.90;;;;;;;7.51;81.68;98528.48;1684224;84;21166;-57
2021/05/08 04:12:01;;;;;;;2.17;2.02;;;;;;;7.52;81.30;98534.61;1685432;84;21226;-58
2021/05/08 04:14:30;;;;;;;2.50;2.20;;;;;;;7.55;81.70;98536.91;1684990;84;21170;-57
2021/05/08 04:16:57;;;;;;;2.87;2.55;;;;;;;7.56;81.57;98530.63;1685839;84;21178;-58
2021/05/08 04:19:27;;;;;;;4.80;2.77;;;;;;;7.56;81.78;98528.79;1685324;83;21131;-58
2021/05/08 04:21:55;;;;;;;2.83;2.62;;;;;;;7.59;81.69;98538.20;1685257;83;21288;-60
2021/05/08 04:24:22;;;;;;;2.40;2.30;;;;;;;7.61;81.55;98539.70;1685432;84;21421;-60
2021/05/08 04:26:50;;;;;;;2.60;2.40;;;;;;;7.66;81.40;98541.83;1687345;84;21621;-58
2021/05/08 04:29:19;;;;;;;2.72;2.52;;;;;;;7.68;81.12;98541.14;1687064;84;21670;-60
2021/05/08 04:31:48;;;;;;;2.77;2.20;;;;;;;7.71;80.95;98538.16;1685088;84;21943;-58
2021/05/08 04:34:16;;;;;;;2.52;2.33;;;;;;;7.75;80.67;98546.05;1685118;84;21166;-58
2021/05/08 04:36:44;;;;;;;3.15;2.85;;;;;;;7.78;80.31;98548.36;1685520;84;21376;-60
2021/05/08 04:39:14;;;;;;;4.12;3.72;;;;;;;7.82;80.15;98544.38;1686626;84;21605;-59
2021/05/08 04:41:41;;;;;;;3.10;2.80;;;;;;;7.82;79.98;98543.05;1686359;84;21226;-58
2021/05/08 04:44:09;;;;;;;2.92;2.72;;;;;;;7.83;79.79;98540.22;1686014;83;21265;-59
2021/05/08 04:46:36;;;;;;;2.58;2.37;;;;;;;7.89;79.91;98549.29;1685030;83;21194;-61
2021/05/08 04:49:04;;;;;;;2.85;2.27;;;;;;;7.96;79.70;98542.28;1680824;83;22103;-58
2021/05/08 04:51:31;;;;;;;2.60;2.40;;;;;;;8.00;79.37;98549.69;1684513;84;20964;-58
2021/05/08 04:53:59;;;;;;;2.80;2.50;;;;;;;8.06;79.12;98549.48;1685277;84;21209;-58
2021/05/08 04:56:26;;;;;;;2.85;2.65;;;;;;;8.11;79.17;98553.75;1685915;83;21179;-58
2021/05/08 04:58:54;;;;;;;2.80;2.58;;;;;;;8.16;79.05;98547.95;1685806;84;21143;-61
2021/05/08 05:01:21;;;;;;;2.40;2.20;;;;;;;8.20;78.84;98554.03;1685366;83;22191;-59
2021/05/08 05:03:49;;;;;;;2.05;1.95;;;;;;;8.25;78.74;98558.30;1686116;84;21217;-58
2021/05/08 05:06:16;;;;;;;2.35;2.15;;;;;;;8.32;78.53;98553.13;1684333;84;21679;-58
2021/05/08 05:08:46;;;;;;;2.33;2.12;;;;;;;8.37;78.16;98564.05;1684864;84;21892;-60
2021/05/08 05:11:15;;;;;;;4.03;2.10;;;;;;;8.40;77.64;98569.80;1674908;84;21099;-58
2021/05/08 05:13:44;;;;;;;2.67;2.47;;;;;;;8.44;77.26;98568.45;1682726;84;21332;-61
2021/05/08 05:16:13;;;;;;;2.65;2.20;;;;;;;8.45;76.70;98572.73;1686000;84;21174;-59
2021/05/08 05:18:42;;;;;;;2.12;1.98;;;;;;;8.44;76.31;98578.22;1685409;84;21193;-59
2021/05/08 05:21:10;;;;;;;2.12;2.02;;;;;;;8.43;76.01;98589.32;1684199;84;21606;-58
2021/05/08 05:23:38;;;;;;;2.10;2.00;;;;;;;8.44;76.24;98589.66;1684401;84;21592;-58
2021/05/08 05:26:06;;;;;;;2.35;2.12;;;;;;;8.46;76.52;98596.09;1685058;84;21282;-59
2021/05/08 05:28:34;;;;;;;2.47;2.27;;;;;;;8.46;76.36;98590.30;1685143;84;20996;-59
2021/05/08 05:31:01;;;;;;;2.62;2.22;;;;;;;8.42;76.12;98598.27;1686749;84;21619;-59
2021/05/08 05:33:28;;;;;;;2.27;2.08;;;;;;;8.40;75.61;98599.44;1685148;84;21096;-59
2021/05/08 05:35:56;;;;;;;2.85;2.00;;;;;;;8.36;75.41;98605.62;1687375;84;21144;-57
2021/05/08 05:38:25;;;;;;;2.20;2.00;;;;;;;8.32;75.11;98608.28;1685183;84;21295;-59
2021/05/08 05:40:53;;;;;;;1.75;1.65;;;;;;;8.27;74.89;98616.43;1684662;83;21210;-56
2021/05/08 05:43:21;;;;;;;2.25;1.98;;;;;;;8.26;74.80;98621.39;1681082;83;21250;-55
2021/05/08 05:45:49;;;;;;;1.75;1.65;;;;;;;8.30;74.81;98618.24;1692633;83;21147;-59
2021/05/08 05:48:20;;;;;;;2.45;2.25;;;;;;;8.37;75.09;98626.33;1689621;83;20974;-57
2021/05/08 05:50:47;;;;;;;2.22;1.87;;;;;;;8.42;74.70;98631.39;1685801;83;21398;-61
2021/05/08 05:53:16;;;;;;;2.05;1.92;;;;;;;8.44;74.51;98636.04;1682983;84;21195;-60
2021/05/08 05:55:44;;;;;;;1.95;1.70;;;;;;;8.45;74.70;98649.59;1687662;84;21156;-58
2021/05/08 05:58:12;;;;;;;2.17;2.08;;;;;;;8.39;74.33;98645.02;1681505;84;21257;-57
2021/05/08 06:00:39;;;;;;;1.60;1.50;;;;;;;8.33;74.61;98652.84;1686357;84;21603;-56
2021/05/08 06:03:07;;;;;;;1.77;1.67;;;;;;;8.27;74.67;98654.86;1681983;84;21403;-61
2021/05/08 06:05:34;;;;;;;3.75;2.12;;;;;;;8.20;75.09;98656.53;1691390;84;21156;-59
2021/05/08 06:08:01;;;;;;;3.02;1.67;;;;;;;8.21;75.53;98659.52;1689470;83;21569;-59
2021/05/08 06:10:29;;;;;;;1.90;1.60;;;;;;;8.22;75.37;98667.77;1691726;83;21152;-59
2021/05/08 06:12:56;;;;;;;1.67;1.57;;;;;;;8.14;75.53;98668.65;1686209;84;21611;-60
2021/05/08 06:15:25;;;;;;;1.85;1.40;;;;;;;8.00;75.69;98675.50;1686834;84;22397;-62
2021/05/08 06:17:53;;;;;;;1.65;1.10;;;;;;;7.86;76.68;98686.02;1685183;84;21205;-66
2021/05/08 06:20:28;;;;;;;4.33;3.22;;;;;;;7.75;77.34;98689.86;1682794;84;21231;-61
2021/05/08 06:22:57;;;;;;;3.35;2.37;;;;;;;7.66;77.93;98698.02;1681775;84;21172;-64
2021/05/08 06:25:24;;;;;;;2.00;1.80;;;;;;;7.61;78.70;98702.50;1685005;84;21118;-64
2021/05/08 06:27:54;;;;;;;1.27;1.17;;;;;;;7.57;79.39;98700.34;1686335;83;21043;-63
2021/05/08 06:30:22;;;;;;;1.67;1.50;;;;;;;7.52;79.79;98715.91;1685915;84;21208;-62
2021/05/08 06:32:49;;;;;;;2.55;1.50;;;;;;;7.46;80.30;98717.41;1676778;83;21269;-64
2021/05/08 06:35:17;;;;;;;3.10;1.75;;;;;;;7.44;80.83;98718.91;1687700;84;21205;-62
2021/05/08 06:37:49;;;;;;;1.98;1.62;;;;;;;7.44;81.43;98725.52;1685370;84;21095;-66
2021/05/08 06:40:17;;;;;;;1.77;1.67;;;;;;;7.43;81.68;98733.13;1685984;83;21365;-62
2021/05/08 06:42:44;;;;;;;1.67;1.57;;;;;;;7.40;82.31;98729.48;1686786;83;21161;-65
2021/05/08 06:45:12;;;;;;;2.12;1.95;;;;;;;7.37;83.06;98740.92;1690710;84;21145;-59
2021/05/08 06:47:40;;;;;;;1.77;1.67;;;;;;;7.35;83.37;98738.95;1685752;84;21053;-61
2021/05/08 06:50:09;;;;;;;2.27;2.08;;;;;;;7.37;83.78;98739.59;1667322;84;21224;-59
2021/05/08 06:52:37;;;;;;;4.37;2.20;;;;;;;7.38;83.88;98739.41;1659637;86;21380;-63
2021/05/08 06:55:06;;;;;;;2.30;1.98;;;;;;;7.45;84.01;98746.20;1660930;85;21601;-60
2021/05/08 06:57:34;;;;;;;2.42;2.02;;;;;;;7.52;84.22;98743.70;1659747;85;21163;-63
2021/05/08 07:00:02;;;;;;;2.05;1.90;;;;;;;7.54;84.45;98743.86;1658680;85;21166;-63
2021/05/08 07:02:29;;;;;;;2.40;2.12;;;;;;;7.58;84.50;98753.13;1661838;85;21113;-62
2021/05/08 07:04:57;;;;;;;3.20;1.62;;;;;;;7.60;84.03;98755.59;1634223;86;21430;-60
2021/05/08 07:07:25;;;;;;;3.62;2.27;;;;;;;7.61;83.94;98765.20;1683979;83;21672;-61
2021/05/08 07:09:54;;;;;;;2.85;2.58;;;;;;;7.62;84.16;98768.98;1677599;84;21206;-59
2021/05/08 07:12:22;;;;;;;3.17;2.60;;;;;;;7.64;84.24;98774.13;1661990;84;21147;-59
2021/05/08 07:14:49;;;;;;;2.10;2.00;;;;;;;7.61;84.30;98783.23;1638783;85;21642;-64
2021/05/08 07:17:16;;;;;;;2.55;1.70;;;;;;;7.58;84.06;98784.89;1642515;85;21754;-60
2021/05/08 07:19:46;;;;;;;2.95;2.42;;;;;;;7.54;83.21;98786.70;1678272;84;21212;-60
2021/05/08 07:22:14;;;;;;;2.02;1.82;;;;;;;7.45;82.44;98795.16;1663478;84;21172;-58
2021/05/08 07:24:41;;;;;;;2.10;1.90;;;;;;;7.40;82.51;98803.58;1674760;84;21236;-63
2021/05/08 07:27:09;;;;;;;1.95;1.47;;;;;;;7.37;82.62;98811.05;1672605;85;21206;-61
2021/05/08 07:29:37;;;;;;;2.42;1.55;;;;;;;7.36;82.33;98819.47;1664827;85;21260;-64
2021/05/08 07:32:05;;;;;;;2.30;1.62;;;;;;;7.32;82.14;98819.48;1672558;83;21158;-62
2021/05/08 07:34:33;;;;;;;2.08;1.52;;;;;;;7.32;81.91;98827.42;1678102;84;21159;-64
2021/05/08 07:37:00;;;;;;;1.42;1.32;;;;;;;7.32;81.73;98827.91;1670377;84;21230;-62
2021/05/08 07:39:28;;;;;;;2.12;1.98;;;;;;;7.31;81.64;98835.02;1670851;85;21080;-62
2021/05/08 07:42:13;;;;;;;2.73;1.90;;;;;;;7.26;81.68;98843.95;1734681;80;21052;-62
2021/05/08 07:44:43;;;;;;;3.22;1.52;;;;;;;7.26;81.68;98843.95;1700767;82;21671;-61
2021/05/08 07:47:13;;;;;;;2.10;1.90;;;;;;;7.25;82.05;98842.28;1714797;80;21629;-61
2021/05/08 07:49:41;;;;;;;2.47;2.12;;;;;;;7.28;81.87;98848.58;1699666;81;21165;-59
2021/05/08 07:52:09;;;;;;;4.72;2.33;;;;;;;7.44;82.28;98846.42;1720559;81;21020;-59
2021/05/08 07:54:37;;;;;;;2.33;2.12;;;;;;;7.77;82.58;98852.02;1717852;81;21187;-58
2021/05/08 07:57:07;;;;;;;2.45;2.15;;;;;;;8.15;82.44;98854.45;1667215;82;21280;-60
2021/05/08 07:59:36;;;;;;;3.08;2.20;;;;;;;8.54;82.05;98855.34;1670022;81;21105;-60
2021/05/08 08:02:04;;;;;;;2.80;2.27;;;;;;;8.90;81.36;98850.83;1674445;81;21601;-59
2021/05/08 08:04:32;;;;;;;2.58;2.05;;;;;;;9.26;80.26;98860.72;1695358;81;21149;-57
2021/05/08 08:07:00;;;;;;;2.62;2.12;;;;;;;9.50;78.25;98856.22;1701108;81;21362;-58
2021/05/08 08:09:27;;;;;;;4.35;1.67;;;;;;;9.62;76.57;98858.80;1699807;82;21542;-59
2021/05/08 08:11:55;;;;;;;2.02;1.87;;;;;;;9.69;75.53;98861.88;1688580;83;21215;-60
2021/05/08 08:14:22;;;;;;;3.15;1.92;;;;;;;9.72;74.20;98865.52;1690347;81;21669;-58
2021/05/08 08:16:50;;;;;;;2.70;2.33;;;;;;;9.67;73.77;98867.84;1687363;82;21129;-58
2021/05/08 08:19:17;;;;;;;2.12;1.90;;;;;;;9.63;73.51;98864.41;1696687;81;21206;-60
2021/05/08 08:21:45;;;;;;;2.40;2.20;;;;;;;9.54;73.09;98874.80;1690557;82;21216;-59
2021/05/08 08:24:12;;;;;;;2.02;1.70;;;;;;;9.39;72.88;98878.70;1691102;82;21677;-59
2021/05/08 08:26:40;;;;;;;2.08;1.70;;;;;;;9.25;73.88;98880.81;1706475;81;21060;-59
2021/05/08 08:29:11;;;;;;;1.50;1.40;;;;;;;9.18;74.58;98881.16;1685277;83;21156;-60
2021/05/08 08:31:39;;;;;;;2.05;1.82;;;;;;;9.10;74.94;98887.84;1668232;83;21349;-61
2021/05/08 08:34:07;;;;;;;1.85;1.67;;;;;;;9.03;75.29;98886.91;1718327;81;21261;-62
2021/05/08 08:36:35;;;;;;;2.62;1.92;;;;;;;8.94;75.41;98887.44;1692561;83;21151;-61
2021/05/08 08:39:04;;;;;;;2.30;1.75;;;;;;;8.83;75.81;98892.33;1694784;83;21139;-63
2021/05/08 08:41:31;;;;;;;1.90;1.80;;;;;;;8.72;75.80;98894.86;1722381;81;21222;-61
2021/05/08 08:43:59;;;;;;;2.50;2.17;;;;;;;8.62;75.80;98893.75;1724322;80;21191;-62
2021/05/08 08:46:27;;;;;;;6.50;2.40;;;;;;;8.51;76.44;98898.09;1716127;80;21028;-66
2021/05/08 08:48:54;;;;;;;2.37;2.15;;;;;;;8.47;77.04;98904.72;1730426;80;21083;-59
2021/05/08 08:51:22;;;;;;;2.67;2.40;;;;;;;8.50;77.36;98904.37;1698867;81;21239;-68
2021/05/08 08:53:50;;;;;;;3.27;1.87;;;;;;;8.58;77.19;98910.98;1734989;80;21725;-64
2021/05/08 08:56:17;;;;;;;3.60;3.30;;;;;;;8.61;77.12;98913.30;1731601;80;22859;-61
2021/05/08 08:58:44;;;;;;;4.35;2.10;;;;;;;8.65;77.05;98917.27;1690454;82;21575;-67
2021/05/08 09:01:14;;;;;;;1.52;1.40;;;;;;;8.61;76.24;98925.23;1732027;80;21233;-66
2021/05/08 09:03:41;;;;;;;1.20;1.07;;;;;;;8.51;76.20;98931.23;1725104;80;21211;-66
2021/05/08 09:06:09;;;;;;;0.93;0.80;;;;;;;8.40;75.80;98930.75;1721394;80;21160;-66
2021/05/08 09:08:38;;;;;;;0.78;0.78;;;;;;;8.26;75.92;98940.70;1695759;82;21211;-61
2021/05/08 09:11:23;;;;;;;1.30;0.80;;;;;;;8.20;77.05;98946.17;1706998;80;21120;-64
2021/05/08 09:14:23;;;;;;;1.12;1.00;;;;;;;8.18;77.54;98945.52;1699270;82;21140;-68
2021/05/08 09:17:04;;;;;;;2.80;1.60;;;;;;;8.11;77.35;98956.44;1705364;83;21190;-63
2021/05/08 09:19:34;;;;;;;1.37;1.27;;;;;;;8.01;77.34;98963.24;1703024;82;21294;-62
2021/05/08 09:22:35;;;;;;;2.45;1.60;;;;;;;7.96;77.84;98970.03;1707584;80;21234;-62
2021/05/08 09:25:15;;;;;;;2.02;1.55;;;;;;;7.95;78.13;98971.84;1687746;81;21556;-68
2021/05/08 09:27:53;;;;;;;1.50;1.37;;;;;;;8.03;78.44;98971.84;1701345;82;21251;-68
2021/05/08 09:30:26;;;;;;;1.10;0.90;;;;;;;8.14;78.50;98968.52;1717666;80;21138;-60
2021/05/08 09:32:58;;;;;;;1.90;1.67;;;;;;;8.34;78.59;98974.66;1698343;81;21234;-66
2021/05/08 09:35:29;;;;;;;1.67;1.10;;;;;;;8.52;78.26;98981.11;1692682;82;21386;-63
2021/05/08 09:38:16;;;;;;;1.20;1.00;;;;;;;8.66;77.66;98987.02;1696442;83;21661;-62
2021/05/08 09:40:46;;;;;;;0.62;0.62;;;;;;;8.75;76.83;98982.53;1724999;80;21139;-63
2021/05/08 09:43:20;;;;;;;1.20;0.82;;;;;;;8.78;76.38;98980.87;1724128;80;21107;-64
2021/05/08 09:45:52;;;;;;;0.98;0.80;;;;;;;8.80;75.95;98984.17;1735164;81;21187;-56
2021/05/08 09:48:30;;;;;;;1.50;1.40;;;;;;;8.74;75.48;98984.84;1716770;81;21198;-58
2021/05/08 09:51:22;;;;;;;2.35;1.00;;;;;;;8.63;75.77;98995.31;1739126;79;21190;-60
2021/05/08 09:54:13;;;;;;;0.85;0.50;;;;;;;8.53;76.10;98998.16;1819774;78;22779;-57
2021/05/08 09:56:44;;;;;;;1.00;0.80;;;;;;;8.37;76.32;99000.02;1763772;78;20977;-61
2021/05/08 09:59:38;;;;;;;0.95;0.95;;;;;;;8.23;76.96;99013.41;1740017;82;21581;-64
2021/05/08 10:02:10;;;;;;;1.52;1.07;;;;;;;8.14;77.28;99011.75;1734706;79;21561;-66
2021/05/08 10:04:46;;;;;;;1.82;0.80;;;;;;;8.04;77.35;99007.95;1720610;82;21117;-67
2021/05/08 10:07:17;;;;;;;1.50;1.40;;;;;;;7.97;77.38;99014.08;1728148;81;20960;-64
2021/05/08 10:09:47;;;;;;;1.05;0.95;;;;;;;7.86;77.37;99024.98;1724738;81;22355;-65
2021/05/08 10:12:22;;;;;;;1.87;1.15;;;;;;;7.75;77.87;99023.97;1724464;80;20914;-58
2021/05/08 10:14:50;;;;;;;1.10;1.00;;;;;;;7.70;78.52;99023.63;1744141;81;20965;-66
2021/05/08 10:17:28;;;;;;;1.17;0.82;;;;;;;7.65;79.16;99021.48;1725068;80;21057;-65
2021/05/08 10:20:08;;;;;;;0.80;0.80;;;;;;;7.63;79.69;99030.58;1742328;81;20960;-62
2021/05/08 10:22:52;;;;;;;1.07;0.90;;;;;;;7.56;79.89;99029.05;1724516;81;21127;-62
2021/05/08 10:25:19;;;;;;;1.02;0.68;;;;;;;7.55;80.16;99027.91;1724572;81;21215;-66
2021/05/08 10:27:47;;;;;;;1.02;0.80;;;;;;;7.62;80.71;99030.23;1746842;81;21025;-64
2021/05/08 10:30:34;;;;;;;0.65;0.60;;;;;;;7.76;81.10;99030.94;1724307;83;21170;-63
2021/05/08 10:33:16;;;;;;;0.85;0.65;;;;;;;7.95;80.84;99031.44;1703196;81;21138;-59
2021/05/08 10:35:50;;;;;;;2.02;0.82;;;;;;;8.06;79.68;99036.91;1709300;81;21126;-59
2021/05/08 10:38:23;;;;;;;1.10;1.00;;;;;;;8.18;79.92;99037.42;1718137;82;21428;-65
2021/05/08 10:41:04;;;;;;;1.00;0.90;;;;;;;8.29;79.91;99035.28;1723448;82;21025;-60
2021/05/08 10:43:55;;;;;;;2.83;0.72;;;;;;;8.36;79.26;99042.92;1742630;79;21119;-66
2021/05/08 10:46:23;;;;;;;2.67;1.67;;;;;;;8.43;78.96;99040.42;1713416;81;21198;-61
2021/05/08 10:49:13;;;;;;;5.10;1.92;;;;;;;8.47;78.75;99046.54;1733705;80;21144;-65
2021/05/08 10:51:59;;;;;;;4.30;1.32;;;;;;;8.54;78.34;99051.52;1730952;82;21013;-65
2021/05/08 10:54:45;;;;;;;6.70;1.98;;;;;;;8.66;78.15;99048.84;1723384;82;21629;-60
2021/05/08 10:57:24;;;;;;;2.50;1.40;;;;;;;8.77;77.84;99050.81;1727255;82;21633;-69
2021/05/08 11:00:08;;;;;;;2.50;1.30;;;;;;;8.78;76.49;99052.48;1745807;81;21135;-63
2021/05/08 11:02:48;;;;;;;2.98;1.82;;;;;;;8.73;76.19;99053.48;1723986;82;21140;-62
2021/05/08 11:05:32;;;;;;;4.85;1.82;;;;;;;8.82;76.51;99049.80;1713618;80;21089;-61
2021/05/08 11:07:59;;;;;;;4.50;1.50;;;;;;;9.02;76.36;99045.79;1720512;80;20915;-63
2021/05/08 11:10:37;;;;;;;1.87;1.30;;;;;;;9.27;75.62;99048.67;1759315;81;20910;-65
2021/05/08 11:13:13;;;;;;;1.07;0.93;;;;;;;9.59;75.36;99041.06;1751230;79;21032;-64
2021/05/08 11:16:03;;;;;;;2.35;1.50;;;;;;;9.91;73.45;99040.84;1723579;82;21171;-65
2021/05/08 11:21:18;;;;;;;1.42;1.10;;;;;;;10.22;68.39;99046.15;1713544;82;21618;-63
2021/05/08 11:23:58;;;;;;;1.42;1.32;;;;;;;10.34;68.57;99041.55;1728584;79;21133;-60
2021/05/08 11:26:33;;;;;;;1.95;1.10;;;;;;;10.62;68.18;99038.30;1740324;81;21016;-64
2021/05/08 11:29:11;;;;;;;1.30;1.20;;;;;;;10.95;67.63;99042.30;1756439;81;21610;-60
2021/05/08 11:31:52;;;;;;;1.82;1.12;;;;;;;11.22;66.08;99036.31;1724272;81;21206;-60
2021/05/08 11:34:30;;;;;;;2.62;1.10;;;;;;;11.44;64.90;99039.38;1758092;81;21157;-60
2021/05/08 11:37:08;;;;;;;2.05;1.42;;;;;;;11.62;64.43;99035.80;1731922;81;20934;-62
2021/05/08 11:39:40;;;;;;;3.25;1.10;;;;;;;11.80;63.90;99034.08;1732585;81;20987;-61
2021/05/08 11:45:11;;;;;;;1.50;1.07;;;;;;;12.01;61.63;99039.94;1872693;76;27707;-60
2021/05/08 11:47:38;;;;;;;2.92;0.82;;;;;;;11.96;61.24;99058.34;1789752;80;20995;-60
2021/05/08 11:50:17;;;;;;;2.83;2.27;;;;;;;11.87;59.71;99048.30;1822816;78;22113;-63
2021/05/08 11:52:52;;;;;;;2.67;2.02;;;;;;;11.78;59.53;99055.27;1799353;78;21048;-60
2021/05/08 11:55:23;;;;;;;5.40;2.83;;;;;;;11.68;58.59;99044.86;1821508;78;20994;-62
2021/05/08 11:57:57;;;;;;;4.47;2.70;;;;;;;11.55;58.57;99046.06;1800314;78;21008;-65
2021/05/08 12:00:33;;;;;;;3.25;1.92;;;;;;;11.47;57.65;99046.97;1790348;78;21549;-66
2021/05/08 12:03:16;;;;;;;2.15;1.30;;;;;;;11.28;56.83;99058.22;1791019;78;21404;-61